EDDV

Hannover Airport

Hannover, Germany
METAR EDDV 231550Z 08013KT CAVOK 00/M08 Q1025 NOSIG
Observed Flight Rules
Feb-23 @ 15:50 UTC (49 minutes ago) Visual Flight Rules
Wind Visibility Clouds
80° at 13 knots 10,000+ meters
  • Clear skies
Temperatures Readings
Current 0°C / 32°F
Dewpoint -8°C / 18°F
Humidity 55%
Altimeter 30.27" Hg
Pressure 1025 hPa
Elevation 54
METAR EDDV 231550Z 08013KT CAVOK 00/M08 Q1025 NOSIG
Observed Flight Rules
Feb-23 @ 15:50 UTC
(49 minutes ago)
VFR
Wind Visibility
80° at 13 knots 10,000+ meters
Clouds
  • Clear skies
Temperature Dewpoint
0°C / 32°F -8°C / 18°F
Humidity Altimeter Pressure
55% 30.27" Hg 1025 hPa